Airfield :
LOGIN :

Register | Disclaimer

   EN    FR    IT 

 










Legend :    VFR   Marginal VFR   IFR   Intensive IFR   Very Intensive IFR
Visi :
Ceiling :
>= 8 km
>= 3000ft
5 to 8 km
1000 to 3000 ft
1500m to 5 km
500 to 1000 ft
800 to 1500m
200 to 500 ft
< 800m
< 200 ft
Symbols :   Thunderstorms  Fog  Heavy snow  Heavy precipitations  Wind > 20 kt
SIGMETs :     Misc.  Thunderstorms  Icing  Turbulence  Mountain Waves  Volcanic Ashes






- Airport Elevation : 3006 ft
- IATA code : LEN


LELN - Leon

CURRENT METAR :
  • 030830Z 09004KT CAVOK 22/09 Q1019

EXPIRED METARs :
  • 030800Z 18005KT 140V250 9999 FEW065TCU 20/10 Q1020
  • 030730Z 34006KT 300V020 9999 SCT065TCU 18/10 Q1019
  • 030700Z 35004KT 9999 SCT065TCU 17/10 Q1019
  • 030650Z 34004KT 9999 SCT065TCU 17/09 Q1019
  • 030630Z 04003KT 020V080 CAVOK 17/09 Q1020
  • 030600Z VRB01KT CAVOK 14/08 Q1020

TAF AMD TAF LELN
Valid from the 03 at 09:00 until the 04 at 09:00 UTC


030830Z 0309/0409 VRB05KT 9999 FEW045 TX30/0316Z TN13/0405Z
PROB40
TEMPO 0310/0313 14010KT
PROB40
TEMPO 0309/0320 VRB15G25KT 4000 TSRA SHRA SCT045CB



MET'MAP, your aeronautical weather chart ! - Copyright ORBIFLY December 2007 - Disclaimer

ORBIFLY MET'MAP TEAM :

Programming & Development : Alexandra Zaïnal
Original concept : Baudouin d'Aumeries
Technical & hardware support : Manuel Goepfert
Assistance : Marc-Olivier Méhu




SOURCES & CREDITS :

   NOAA